Time;durP1;ratioP1;P1;durP2;ratioP2;P2;SDS_P1;SDS_P2;PMS_P1;PMS_P2;Temp;Humidity;BMP_temperature;BMP_pressure;BME280_temperature;BME280_humidity;BME280_pressure;Samples;Min_cycle;Max_cycle;Signal;HPM_P1;HPM_P2
2021/08/01 00:01:27;;;;;;;7.63;3.97;;;;;;;15.97;87.42;100576.06;10107049;28;20086;-67
2021/08/01 00:06:25;;;;;;;8.27;4.07;;;;;;;16.00;87.22;100558.81;10085687;28;20049;-68
2021/08/01 00:11:21;;;;;;;7.80;4.10;;;;;;;16.03;86.70;100562.78;10099477;28;20055;-68
2021/08/01 00:16:18;;;;;;;7.80;4.03;;;;;;;16.04;86.67;100565.22;10101099;28;20046;-68
2021/08/01 00:21:15;;;;;;;8.13;3.58;;;;;;;16.05;86.32;100561.28;10099661;28;20137;-68
2021/08/01 00:26:11;;;;;;;9.02;4.18;;;;;;;15.96;85.93;100563.44;10103022;28;20112;-68
2021/08/01 00:31:07;;;;;;;8.05;4.78;;;;;;;15.96;85.69;100555.16;10106051;28;20631;-67
2021/08/01 00:36:04;;;;;;;8.18;4.35;;;;;;;15.90;85.86;100553.84;10099685;28;20527;-67
2021/08/01 00:41:02;;;;;;;7.70;4.63;;;;;;;15.86;85.96;100558.47;10095470;28;20395;-67
2021/08/01 00:45:59;;;;;;;8.30;4.47;;;;;;;15.89;85.60;100563.25;10090069;28;20086;-68
2021/08/01 00:50:56;;;;;;;6.05;3.75;;;;;;;15.92;85.50;100573.56;10112909;28;20051;-68
2021/08/01 00:55:52;;;;;;;6.03;3.17;;;;;;;15.84;85.26;100572.59;10115945;28;20137;-68
2021/08/01 01:06:01;;;;;;;8.88;4.00;;;;;;;15.89;85.29;100555.78;10110672;28;20054;-68
2021/08/01 01:11:01;;;;;;;7.55;4.38;;;;;;;15.86;85.67;100553.75;10103656;28;20086;-68
2021/08/01 01:16:00;;;;;;;10.55;4.97;;;;;;;15.80;85.54;100543.34;10109506;28;20046;-68
2021/08/01 01:21:10;;;;;;;7.32;4.82;;;;;;;15.81;85.19;100543.00;10107908;28;20428;-67
2021/08/01 01:26:33;;;;;;;6.30;4.20;;;;;;;15.74;86.04;100535.34;10108357;28;20047;-67
2021/08/01 01:31:39;;;;;;;8.05;4.28;;;;;;;15.79;85.60;100542.56;10103988;28;20093;-67
2021/08/01 01:36:39;;;;;;;8.65;4.85;;;;;;;15.72;85.61;100536.88;10114500;28;20054;-67
2021/08/01 01:41:38;;;;;;;11.68;4.18;;;;;;;15.68;85.92;100536.75;10107185;28;20134;-67
2021/08/01 01:46:36;;;;;;;7.63;4.03;;;;;;;15.68;86.10;100542.25;10114415;28;20402;-68
2021/08/01 01:51:34;;;;;;;7.47;4.20;;;;;;;15.71;86.04;100552.63;10113028;28;20039;-67
2021/08/01 01:56:33;;;;;;;9.73;4.43;;;;;;;15.76;85.42;100548.78;10102302;28;20175;-67
2021/08/01 02:01:29;;;;;;;8.25;3.90;;;;;;;15.80;85.65;100554.38;10110960;28;20043;-67
2021/08/01 02:06:26;;;;;;;6.45;3.63;;;;;;;15.74;85.53;100551.91;10102167;28;20047;-68
2021/08/01 02:11:29;;;;;;;8.25;4.05;;;;;;;15.72;85.71;100554.19;10108114;28;20086;-67
2021/08/01 02:16:32;;;;;;;6.85;3.75;;;;;;;15.76;85.72;100544.06;10104052;28;20093;-68
2021/08/01 02:21:29;;;;;;;7.37;4.10;;;;;;;15.81;85.62;100539.44;10101792;28;20478;-67
2021/08/01 02:26:27;;;;;;;9.10;3.90;;;;;;;15.84;85.51;100539.53;10095602;28;20053;-69
2021/08/01 02:31:24;;;;;;;6.78;4.15;;;;;;;15.78;85.59;100530.72;10112029;28;20635;-68
2021/08/01 02:36:23;;;;;;;9.43;4.38;;;;;;;15.81;85.27;100522.91;10108123;28;20059;-66
2021/08/01 02:41:33;;;;;;;7.28;4.35;;;;;;;15.76;85.70;100527.53;10109863;28;20085;-68
2021/08/01 02:46:32;;;;;;;10.80;5.25;;;;;;;15.65;87.23;100520.94;10093346;28;20116;-68
2021/08/01 02:51:30;;;;;;;7.72;4.93;;;;;;;15.63;88.16;100523.25;10093956;28;20045;-66
2021/08/01 02:56:30;;;;;;;9.02;5.20;;;;;;;15.57;88.62;100525.47;10102967;28;20046;-67
2021/08/01 03:01:28;;;;;;;12.60;5.72;;;;;;;15.52;88.85;100538.72;10102383;28;20046;-69
2021/08/01 03:06:32;;;;;;;10.68;5.70;;;;;;;15.52;89.50;100530.44;10108610;28;20053;-70
2021/08/01 03:11:33;;;;;;;10.52;6.40;;;;;;;15.47;89.69;100547.25;10103406;28;20569;-70
2021/08/01 03:16:30;;;;;;;9.23;5.85;;;;;;;15.47;89.75;100536.22;10101624;28;20126;-69
2021/08/01 03:21:26;;;;;;;10.43;6.82;;;;;;;15.43;90.60;100532.56;10082819;28;20414;-70
2021/08/01 03:26:23;;;;;;;11.48;6.65;;;;;;;15.31;91.18;100533.47;10099784;28;20558;-70
2021/08/01 03:31:19;;;;;;;15.60;6.85;;;;;;;15.36;91.76;100536.75;10103859;28;20074;-69
2021/08/01 03:36:16;;;;;;;11.55;6.80;;;;;;;15.29;91.94;100539.34;10109139;28;20709;-67
2021/08/01 03:41:12;;;;;;;9.05;6.25;;;;;;;15.28;91.73;100545.97;10110017;28;20057;-68
2021/08/01 03:46:09;;;;;;;11.65;5.90;;;;;;;15.33;91.23;100565.00;10109000;28;20202;-69
2021/08/01 03:51:05;;;;;;;10.75;6.03;;;;;;;15.36;91.18;100569.81;10105065;28;20081;-70
2021/08/01 03:56:03;;;;;;;10.63;5.25;;;;;;;15.39;90.78;100573.00;10097959;28;20086;-69
2021/08/01 04:00:59;;;;;;;13.25;5.22;;;;;;;15.38;89.80;100583.22;10093435;28;20109;-68
2021/08/01 04:05:56;;;;;;;12.55;4.65;;;;;;;15.38;89.55;100579.69;10108830;28;20144;-70
2021/08/01 04:10:52;;;;;;;10.07;4.93;;;;;;;15.28;89.41;100576.28;10110807;28;20074;-69
2021/08/01 04:15:49;;;;;;;10.38;5.20;;;;;;;15.31;89.05;100561.78;10100207;28;20081;-68
2021/08/01 04:20:45;;;;;;;8.73;4.07;;;;;;;15.29;89.21;100564.13;10106096;28;20054;-68
2021/08/01 04:25:42;;;;;;;9.73;4.75;;;;;;;15.30;89.52;100564.91;10104213;28;20078;-68
2021/08/01 04:30:38;;;;;;;10.75;4.20;;;;;;;15.28;89.31;100573.53;10106890;28;20532;-69
2021/08/01 04:35:35;;;;;;;11.27;4.97;;;;;;;15.39;89.53;100584.00;10115683;28;20039;-69
2021/08/01 04:40:31;;;;;;;10.77;5.07;;;;;;;15.45;89.36;100593.63;10101796;28;20066;-68
2021/08/01 04:45:28;;;;;;;10.70;5.50;;;;;;;15.45;89.30;100588.13;10114571;28;20047;-66
2021/08/01 04:50:25;;;;;;;11.05;5.45;;;;;;;15.49;89.16;100600.03;10119915;28;20042;-68
2021/08/01 04:55:22;;;;;;;12.40;6.55;;;;;;;15.58;88.85;100604.22;10111096;28;20106;-67
2021/08/01 05:00:18;;;;;;;11.27;7.07;;;;;;;15.52;88.60;100593.81;10115095;28;20085;-67
2021/08/01 05:05:15;;;;;;;12.30;6.82;;;;;;;15.55;87.96;100604.16;10091746;28;20122;-68
2021/08/01 05:10:11;;;;;;;13.02;6.75;;;;;;;15.56;88.42;100600.22;10111565;28;20054;-67
2021/08/01 05:15:08;;;;;;;16.90;7.60;;;;;;;15.67;87.95;100606.03;10110166;28;20098;-67
2021/08/01 05:20:06;;;;;;;12.55;7.40;;;;;;;15.65;87.25;100619.34;10103630;28;20090;-68
2021/08/01 05:25:03;;;;;;;14.93;7.43;;;;;;;15.67;87.32;100628.88;10113175;28;20138;-67
2021/08/01 05:29:59;;;;;;;12.32;6.60;;;;;;;15.65;87.27;100625.66;10100593;28;20043;-66
2021/08/01 05:34:56;;;;;;;11.68;6.68;;;;;;;15.59;87.24;100616.03;10109782;28;20085;-67
2021/08/01 05:39:52;;;;;;;16.15;7.72;;;;;;;15.66;87.46;100604.41;10092609;28;20070;-67
2021/08/01 05:44:49;;;;;;;13.25;6.25;;;;;;;15.80;86.85;100598.47;10108059;28;20551;-66
2021/08/01 05:49:45;;;;;;;12.93;6.10;;;;;;;15.85;86.09;100607.31;10108850;28;20565;-67
2021/08/01 05:54:42;;;;;;;13.73;6.80;;;;;;;15.89;84.84;100612.88;10112925;28;20050;-67
2021/08/01 05:59:38;;;;;;;11.35;6.18;;;;;;;15.99;85.13;100623.41;10116587;28;20054;-66
2021/08/01 06:04:35;;;;;;;10.50;7.25;;;;;;;15.97;84.35;100614.69;10110330;28;20480;-68
2021/08/01 06:09:31;;;;;;;16.45;8.13;;;;;;;15.97;84.32;100620.19;10111682;28;20053;-69
2021/08/01 06:14:28;;;;;;;14.23;8.38;;;;;;;15.87;84.31;100610.47;10094774;28;20082;-68
2021/08/01 06:19:24;;;;;;;14.85;8.82;;;;;;;15.82;84.63;100608.00;10108443;28;20039;-68
2021/08/01 06:24:21;;;;;;;15.70;8.57;;;;;;;15.88;84.61;100616.81;10107593;28;20077;-66
2021/08/01 06:29:17;;;;;;;15.00;7.78;;;;;;;16.07;84.64;100596.78;10106995;28;20647;-68
2021/08/01 06:34:13;;;;;;;13.88;7.90;;;;;;;16.18;84.13;100603.34;10115024;28;20062;-67
2021/08/01 06:39:10;;;;;;;15.43;7.10;;;;;;;16.28;83.32;100607.50;10098465;28;20081;-69
2021/08/01 06:44:06;;;;;;;12.25;7.78;;;;;;;16.25;82.98;100619.28;10102596;28;20161;-69
2021/08/01 06:49:03;;;;;;;11.68;6.90;;;;;;;16.24;83.00;100612.94;10098501;28;20055;-67
2021/08/01 06:53:59;;;;;;;18.30;9.00;;;;;;;16.40;83.43;100615.66;10107642;28;20106;-68
2021/08/01 06:58:56;;;;;;;13.30;7.63;;;;;;;16.39;82.40;100614.06;10096084;28;20047;-68
2021/08/01 07:03:52;;;;;;;13.52;7.57;;;;;;;16.49;82.25;100613.50;10096953;28;20151;-67
2021/08/01 07:08:49;;;;;;;16.25;8.07;;;;;;;16.59;82.16;100618.47;10091304;28;20543;-68
2021/08/01 07:13:46;;;;;;;18.23;7.22;;;;;;;16.60;81.27;100625.59;10087164;28;20129;-68
2021/08/01 07:18:42;;;;;;;14.15;7.63;;;;;;;16.64;80.71;100625.66;10092387;28;20062;-67
2021/08/01 07:23:39;;;;;;;13.32;7.28;;;;;;;16.65;80.65;100637.50;10092548;28;20469;-66
2021/08/01 07:28:35;;;;;;;14.73;8.18;;;;;;;16.62;80.80;100639.03;10085815;28;20127;-67
2021/08/01 07:33:32;;;;;;;18.25;8.85;;;;;;;16.65;81.59;100637.50;10090050;28;20047;-67
2021/08/01 07:38:29;;;;;;;14.85;8.82;;;;;;;16.76;81.55;100633.03;10097392;28;21919;-66
2021/08/01 07:43:25;;;;;;;16.38;8.63;;;;;;;16.86;80.33;100626.94;10085958;28;20098;-66
2021/08/01 07:48:22;;;;;;;13.15;8.27;;;;;;;16.94;79.20;100633.41;10090332;28;20514;-65
2021/08/01 07:53:18;;;;;;;11.88;7.18;;;;;;;16.90;78.61;100633.34;10094672;28;20063;-66
2021/08/01 07:58:14;;;;;;;12.07;6.97;;;;;;;16.95;78.50;100627.53;10096647;28;20145;-66
2021/08/01 08:03:11;;;;;;;10.90;6.60;;;;;;;16.95;77.75;100629.50;10097915;28;20046;-66
2021/08/01 08:08:07;;;;;;;11.27;6.05;;;;;;;16.89;77.58;100630.94;10089551;28;20074;-66
2021/08/01 08:13:04;;;;;;;15.10;7.45;;;;;;;16.93;77.91;100616.03;10084011;28;20139;-67
2021/08/01 08:18:01;;;;;;;12.52;6.97;;;;;;;17.04;77.57;100621.78;10100290;28;20183;-68
2021/08/01 08:22:58;;;;;;;11.07;7.15;;;;;;;17.07;77.22;100620.25;10091755;28;20577;-67
2021/08/01 08:27:54;;;;;;;10.15;6.07;;;;;;;17.28;76.67;100617.91;10096571;28;20051;-68
2021/08/01 08:32:51;;;;;;;11.93;6.93;;;;;;;17.29;76.03;100614.00;10086106;28;20078;-68
2021/08/01 08:37:52;;;;;;;12.30;6.85;;;;;;;17.22;76.60;100613.88;10077240;28;20099;-68
2021/08/01 08:42:49;;;;;;;11.18;6.47;;;;;;;17.20;77.17;100618.94;10074977;28;20043;-68
2021/08/01 08:47:49;;;;;;;10.77;6.20;;;;;;;17.20;76.78;100613.44;10096856;28;20505;-68
2021/08/01 08:52:45;;;;;;;12.25;5.78;;;;;;;17.22;75.79;100611.09;10089936;28;20053;-67
2021/08/01 08:57:46;;;;;;;10.73;5.20;;;;;;;17.46;75.27;100619.03;10091961;28;20042;-68
2021/08/01 09:02:43;;;;;;;8.65;4.78;;;;;;;17.44;74.46;100615.84;10093044;28;20074;-66
2021/08/01 09:07:40;;;;;;;9.23;5.45;;;;;;;17.45;75.60;100617.44;10087528;28;20043;-67
2021/08/01 09:12:48;;;;;;;6.95;4.40;;;;;;;17.54;74.17;100610.88;10089807;28;20043;-66
2021/08/01 09:17:45;;;;;;;10.52;4.95;;;;;;;17.63;73.91;100615.00;10106238;28;20445;-66
2021/08/01 09:22:42;;;;;;;8.68;4.47;;;;;;;17.86;74.01;100615.00;10097385;28;20047;-66
2021/08/01 09:27:39;;;;;;;6.57;4.20;;;;;;;17.88;72.65;100609.91;10089296;28;20047;-66
2021/08/01 09:32:49;;;;;;;6.97;4.35;;;;;;;17.93;72.31;100610.78;10092858;28;20073;-65
2021/08/01 09:37:58;;;;;;;6.47;3.97;;;;;;;17.92;72.46;100603.66;10105003;28;20631;-66
2021/08/01 09:43:10;;;;;;;5.78;4.00;;;;;;;17.68;74.78;100605.59;10092677;28;20049;-66
2021/08/01 09:48:20;;;;;;;8.93;4.60;;;;;;;17.46;75.69;100605.22;10095222;28;20079;-65
2021/08/01 09:53:17;;;;;;;7.60;4.28;;;;;;;17.45;76.62;100600.88;10101047;28;20486;-67
2021/08/01 09:58:13;;;;;;;7.25;3.80;;;;;;;17.50;75.01;100593.41;10098417;28;20149;-66
2021/08/01 10:03:37;;;;;;;5.40;2.97;;;;;;;17.77;72.06;100599.81;10097916;28;20500;-66
2021/08/01 10:08:39;;;;;;;6.80;3.53;;;;;;;17.84;71.83;100592.47;10087502;28;20078;-66
2021/08/01 10:13:37;;;;;;;6.23;2.70;;;;;;;17.97;71.26;100573.72;10081659;28;20074;-65
2021/08/01 10:18:35;;;;;;;5.50;2.50;;;;;;;17.98;69.63;100575.28;10099099;28;20527;-66
2021/08/01 10:23:39;;;;;;;7.05;3.08;;;;;;;17.99;69.74;100570.56;10094723;28;20129;-66
2021/08/01 10:28:37;;;;;;;;;;;;;;;18.91;68.36;100573.00;10086180;28;20157;-65
2021/08/01 10:33:38;;;;;;;6.97;3.42;;;;;;;18.57;67.80;100572.97;10089227;28;19926;-64
2021/08/01 10:38:37;;;;;;;5.90;3.92;;;;;;;18.49;68.02;100565.75;10091418;28;20568;-66
2021/08/01 10:43:37;;;;;;;4.88;2.88;;;;;;;19.78;65.48;100561.63;10091089;28;20075;-66
2021/08/01 10:48:33;;;;;;;5.60;3.15;;;;;;;21.90;62.84;100563.19;10103158;28;20121;-67
2021/08/01 10:53:30;;;;;;;9.65;2.65;;;;;;;21.57;56.37;100562.41;10097194;28;20043;-65
2021/08/01 10:58:34;;;;;;;4.75;2.60;;;;;;;20.79;58.09;100557.44;10091927;28;20071;-65
2021/08/01 11:03:33;;;;;;;5.15;3.00;;;;;;;20.32;60.19;100571.09;10101485;28;20125;-66
2021/08/01 11:08:31;;;;;;;5.50;2.90;;;;;;;19.97;60.53;100558.56;10089466;28;20082;-66
2021/08/01 11:13:30;;;;;;;5.85;2.88;;;;;;;20.40;59.61;100558.06;10079279;28;20499;-65
2021/08/01 11:18:31;;;;;;;4.35;2.50;;;;;;;20.04;60.30;100562.59;10070487;28;20047;-67
2021/08/01 11:23:46;;;;;;;5.35;2.28;;;;;;;18.93;67.92;100565.13;10073806;28;20039;-66
2021/08/01 11:28:45;;;;;;;6.85;3.33;;;;;;;18.32;72.86;100569.06;10078978;28;20082;-64
2021/08/01 11:33:47;;;;;;;7.03;2.92;;;;;;;17.95;75.00;100566.97;10082936;28;20038;-67
2021/08/01 11:38:56;;;;;;;7.15;3.60;;;;;;;17.65;77.40;100589.75;10081070;28;20560;-66
2021/08/01 11:43:59;;;;;;;5.40;2.15;;;;;;;17.40;78.74;100612.22;10081489;28;20102;-66
2021/08/01 11:49:02;;;;;;;7.45;3.65;;;;;;;17.28;79.18;100617.13;10075302;28;20113;-66
2021/08/01 11:54:00;;;;;;;6.00;3.20;;;;;;;16.97;80.37;100627.97;10081179;28;20054;-67
2021/08/01 11:58:56;;;;;;;12.45;4.50;;;;;;;16.79;83.75;100610.22;10084087;28;20078;-65
2021/08/01 12:03:53;;;;;;;8.60;4.05;;;;;;;16.99;85.06;100603.56;10087001;28;20074;-67
2021/08/01 12:08:49;;;;;;;10.43;4.65;;;;;;;17.15;84.82;100599.88;10096716;28;20046;-67
2021/08/01 12:14:06;;;;;;;8.55;4.50;;;;;;;17.17;85.58;100611.38;10097345;28;20090;-67
2021/08/01 12:19:12;;;;;;;6.47;3.47;;;;;;;16.99;84.15;100614.59;10101647;28;20054;-66
2021/08/01 12:24:28;;;;;;;6.45;3.50;;;;;;;17.03;83.54;100615.47;10098972;28;20085;-67
2021/08/01 12:29:43;;;;;;;5.97;4.22;;;;;;;17.01;83.62;100611.44;10090685;28;20133;-67
2021/08/01 12:34:39;;;;;;;10.30;5.18;;;;;;;17.08;85.33;100624.59;10096795;28;21488;-67
2021/08/01 12:39:50;;;;;;;7.57;4.82;;;;;;;17.00;83.71;100637.47;10096983;28;20077;-66
2021/08/01 12:44:51;;;;;;;5.97;3.10;;;;;;;16.98;83.52;100640.59;10093387;28;20795;-67
2021/08/01 12:49:48;;;;;;;7.80;4.22;;;;;;;16.93;83.33;100643.66;10099824;28;20090;-66
2021/08/01 12:54:49;;;;;;;7.32;3.97;;;;;;;16.96;84.30;100631.09;10099813;28;20049;-67
2021/08/01 13:00:08;;;;;;;8.05;4.25;;;;;;;16.98;84.83;100639.81;10094498;28;20157;-66
2021/08/01 13:05:05;;;;;;;5.75;3.50;;;;;;;16.90;84.23;100665.69;10093723;28;20082;-66
2021/08/01 13:10:03;;;;;;;6.05;3.22;;;;;;;16.75;83.37;100665.31;10078094;28;20516;-67
2021/08/01 13:15:00;;;;;;;5.47;2.63;;;;;;;16.52;82.56;100676.25;10077823;28;20094;-67
2021/08/01 13:19:56;;;;;;;5.57;2.70;;;;;;;16.51;82.08;100676.63;10101523;28;20109;-67
2021/08/01 13:24:56;;;;;;;6.57;2.90;;;;;;;16.54;81.66;100662.88;10091085;28;20098;-68
2021/08/01 13:30:19;;;;;;;8.30;2.63;;;;;;;16.61;82.74;100665.00;10102870;28;20478;-66
2021/08/01 13:35:27;;;;;;;5.35;2.45;;;;;;;16.65;81.54;100670.63;10103405;28;20051;-66
2021/08/01 13:40:28;;;;;;;5.30;2.50;;;;;;;16.72;82.68;100662.50;10098798;28;20117;-64
2021/08/01 13:45:27;;;;;;;4.50;2.60;;;;;;;16.79;82.20;100659.94;10105197;28;20564;-66
2021/08/01 13:50:25;;;;;;;7.57;3.50;;;;;;;16.95;83.62;100646.84;10103777;28;20074;-66
2021/08/01 13:55:22;;;;;;;7.28;3.47;;;;;;;17.29;83.77;100644.38;10095099;28;20053;-65
2021/08/01 14:00:19;;;;;;;6.47;3.33;;;;;;;17.57;83.67;100632.28;10103469;28;20043;-66
2021/08/01 14:05:15;;;;;;;5.93;2.50;;;;;;;17.44;82.21;100646.25;10106671;28;20054;-66
2021/08/01 14:10:12;;;;;;;5.50;2.20;;;;;;;17.45;81.89;100639.56;10104052;28;20046;-66
2021/08/01 14:15:09;;;;;;;4.80;1.70;;;;;;;17.51;80.94;100639.25;10099644;28;20074;-68
2021/08/01 14:20:08;;;;;;;3.10;1.77;;;;;;;17.47;80.77;100639.19;10096160;28;20085;-67
2021/08/01 14:25:06;;;;;;;2.72;1.30;;;;;;;17.74;80.41;100628.22;10091821;28;20096;-67
2021/08/01 14:30:03;;;;;;;3.88;1.48;;;;;;;18.01;81.26;100634.59;10096676;28;20133;-67
2021/08/01 14:35:03;;;;;;;3.08;1.20;;;;;;;18.01;78.26;100634.59;10091523;28;20057;-67
2021/08/01 14:40:02;;;;;;;3.72;1.65;;;;;;;18.27;78.01;100620.81;10105457;28;20082;-65
2021/08/01 14:44:59;;;;;;;3.35;1.48;;;;;;;18.32;76.79;100632.72;10094454;28;20568;-65
2021/08/01 14:50:01;;;;;;;3.40;1.60;;;;;;;18.11;74.52;100622.94;10096588;28;20075;-66
2021/08/01 14:54:57;;;;;;;4.10;1.90;;;;;;;18.10;75.56;100626.84;10082954;28;20046;-67
2021/08/01 15:00:18;;;;;;;3.90;1.30;;;;;;;18.32;75.16;100627.19;10090935;28;20055;-65
2021/08/01 15:05:14;;;;;;;3.75;1.88;;;;;;;18.05;75.45;100635.47;10091702;28;20113;-66
2021/08/01 15:10:17;;;;;;;3.55;0.95;;;;;;;18.30;75.34;100622.81;10084312;28;20085;-67
2021/08/01 15:15:19;;;;;;;4.25;1.58;;;;;;;18.12;72.63;100621.75;10089191;28;20058;-65
2021/08/01 15:20:16;;;;;;;4.25;1.63;;;;;;;18.51;73.17;100618.75;10089298;28;20050;-68
2021/08/01 15:25:15;;;;;;;3.75;1.08;;;;;;;18.82;70.88;100616.81;10088036;28;20138;-67
2021/08/01 15:30:14;;;;;;;3.28;1.05;;;;;;;19.39;69.43;100625.81;10091893;28;20086;-67
2021/08/01 15:35:15;;;;;;;3.55;1.65;;;;;;;19.65;66.67;100630.41;10089404;28;20050;-67
2021/08/01 15:40:16;;;;;;;5.55;1.98;;;;;;;19.73;67.25;100628.56;10090680;28;20138;-67
2021/08/01 15:45:15;;;;;;;4.30;1.90;;;;;;;19.33;67.79;100624.53;10089007;28;20082;-67
2021/08/01 15:50:13;;;;;;;4.45;1.38;;;;;;;19.37;66.23;100622.59;10088577;28;20768;-67
2021/08/01 15:55:15;;;;;;;4.65;1.35;;;;;;;19.28;66.15;100627.66;10090990;28;20047;-68
2021/08/01 16:00:14;;;;;;;6.90;2.47;;;;;;;19.19;64.71;100624.38;10091735;28;20074;-67
2021/08/01 16:05:15;;;;;;;3.67;1.70;;;;;;;19.12;64.50;100625.91;10093085;28;20105;-67
2021/08/01 16:10:15;;;;;;;4.78;1.40;;;;;;;19.06;63.18;100610.78;10104107;28;20137;-68
2021/08/01 16:15:18;;;;;;;5.35;1.48;;;;;;;19.20;63.21;100615.69;10097088;28;20082;-68
2021/08/01 16:20:15;;;;;;;3.70;1.35;;;;;;;19.57;63.28;100614.09;10088401;28;20397;-66
2021/08/01 16:25:13;;;;;;;3.20;1.00;;;;;;;20.13;60.87;100615.78;10095977;28;20541;-67
2021/08/01 16:30:12;;;;;;;10.10;3.65;;;;;;;20.27;61.55;100621.44;10102380;28;20043;-67
2021/08/01 16:35:11;;;;;;;7.43;1.38;;;;;;;20.95;57.00;100615.47;10100683;28;20117;-70
2021/08/01 16:40:11;;;;;;;5.28;1.75;;;;;;;21.54;53.21;100629.19;10092344;28;20051;-68
2021/08/01 16:45:09;;;;;;;3.88;1.35;;;;;;;20.88;54.68;100626.56;10087980;28;20138;-68
2021/08/01 16:50:16;;;;;;;4.63;1.63;;;;;;;21.27;53.95;100625.91;10090465;28;20047;-66
2021/08/01 16:55:34;;;;;;;4.95;1.75;;;;;;;21.36;52.93;100623.53;10094949;28;20057;-67
2021/08/01 17:00:38;;;;;;;5.72;1.58;;;;;;;21.33;53.68;100608.44;10077277;28;20497;-67
2021/08/01 17:05:40;;;;;;;5.03;1.90;;;;;;;20.88;55.68;100621.00;10096739;28;20047;-67
2021/08/01 17:11:01;;;;;;;7.50;1.63;;;;;;;20.64;56.01;100623.28;10097124;28;20545;-67
2021/08/01 17:16:00;;;;;;;5.25;1.20;;;;;;;19.96;56.08;100623.59;10096019;28;20077;-67
2021/08/01 17:20:59;;;;;;;4.30;1.40;;;;;;;19.96;57.41;100633.91;10095440;28;20057;-67
2021/08/01 17:25:56;;;;;;;8.35;1.60;;;;;;;19.66;55.55;100648.66;10101706;28;20114;-67
2021/08/01 17:31:06;;;;;;;3.15;1.30;;;;;;;19.91;55.63;100645.34;10093338;28;20130;-67
2021/08/01 17:36:09;;;;;;;4.88;1.60;;;;;;;19.27;56.99;100659.34;10095786;28;20078;-67
2021/08/01 17:41:08;;;;;;;5.85;1.50;;;;;;;19.21;57.87;100660.84;10097550;28;20105;-66
2021/08/01 17:46:09;;;;;;;5.40;2.67;;;;;;;19.08;57.84;100669.41;10083149;28;20557;-65
2021/08/01 17:51:06;;;;;;;32.28;20.55;;;;;;;18.79;57.57;100673.78;10088410;28;20047;-65
2021/08/01 17:56:06;;;;;;;9.40;4.13;;;;;;;18.56;54.85;100682.13;10089800;28;20039;-67
2021/08/01 18:01:02;;;;;;;6.25;1.60;;;;;;;18.24;56.23;100687.97;10094939;28;20143;-66
2021/08/01 18:06:01;;;;;;;4.32;1.70;;;;;;;18.16;57.34;100691.00;10096387;28;20042;-67
2021/08/01 18:11:03;;;;;;;9.18;3.03;;;;;;;17.99;58.07;100692.28;10097008;28;20065;-66
2021/08/01 18:16:00;;;;;;;5.18;1.67;;;;;;;17.93;58.37;100689.03;10098453;28;20182;-66
2021/08/01 18:21:03;;;;;;;4.38;1.27;;;;;;;17.77;59.13;100702.13;10098986;28;20051;-67
2021/08/01 18:26:01;;;;;;;4.80;1.77;;;;;;;17.84;59.27;100700.31;10094103;28;20087;-67
2021/08/01 18:30:57;;;;;;;4.85;1.35;;;;;;;17.76;59.41;100717.94;10096412;28;20127;-67
2021/08/01 18:35:54;;;;;;;5.97;2.03;;;;;;;17.63;59.48;100724.78;10101689;28;20046;-66
2021/08/01 18:40:59;;;;;;;5.57;1.30;;;;;;;17.58;59.35;100714.81;10108989;28;20097;-67
2021/08/01 18:45:55;;;;;;;8.68;2.67;;;;;;;17.41;59.96;100724.38;10099819;28;20480;-67
2021/08/01 18:50:52;;;;;;;6.82;1.48;;;;;;;17.35;60.46;100734.09;10101420;28;20039;-67
2021/08/01 18:55:51;;;;;;;3.58;1.38;;;;;;;17.28;60.80;100731.19;10107440;28;20101;-67
2021/08/01 19:00:49;;;;;;;6.00;1.70;;;;;;;17.21;61.71;100736.56;10088052;28;20138;-67
2021/08/01 19:05:47;;;;;;;6.45;1.50;;;;;;;17.08;62.38;100746.97;10092487;28;20113;-67
2021/08/01 19:10:44;;;;;;;4.78;2.10;;;;;;;17.07;62.49;100744.56;10098526;28;20106;-67
2021/08/01 19:16:06;;;;;;;6.20;2.42;;;;;;;16.96;63.08;100745.09;10106311;28;20133;-67
2021/08/01 19:21:05;;;;;;;4.90;1.35;;;;;;;16.81;63.69;100757.00;10102310;28;20055;-69
2021/08/01 19:26:03;;;;;;;6.55;1.63;;;;;;;16.82;63.99;100764.13;10101259;28;20126;-68
2021/08/01 19:31:05;;;;;;;5.10;1.17;;;;;;;16.80;65.27;100771.97;10101146;28;20057;-69
2021/08/01 19:36:02;;;;;;;4.85;1.17;;;;;;;16.68;64.87;100774.81;10107276;28;20058;-68
2021/08/01 19:40:59;;;;;;;4.95;1.52;;;;;;;16.75;65.41;100770.25;10103993;28;20046;-68
2021/08/01 19:45:55;;;;;;;3.50;1.17;;;;;;;16.70;64.80;100778.00;10097050;28;20142;-68
2021/08/01 19:50:53;;;;;;;3.88;1.00;;;;;;;16.65;64.62;100781.06;10104167;28;20474;-68
2021/08/01 19:55:49;;;;;;;6.55;1.10;;;;;;;16.69;64.66;100782.75;10097382;28;20070;-68
2021/08/01 20:00:46;;;;;;;3.90;1.25;;;;;;;16.61;64.32;100780.94;10103267;28;20043;-68
2021/08/01 20:05:43;;;;;;;4.93;1.05;;;;;;;16.56;64.88;100783.97;10098505;28;20138;-67
2021/08/01 20:10:42;;;;;;;8.20;1.75;;;;;;;16.51;64.68;100781.50;10095844;28;20046;-68
2021/08/01 20:15:38;;;;;;;10.15;1.30;;;;;;;16.38;65.04;100778.00;10083071;28;20051;-67
2021/08/01 20:20:36;;;;;;;3.08;1.13;;;;;;;16.29;65.46;100774.63;10103184;28;20057;-67
2021/08/01 20:25:32;;;;;;;8.32;1.90;;;;;;;16.32;65.49;100782.22;10091191;28;20130;-68
2021/08/01 20:30:29;;;;;;;3.90;0.95;;;;;;;16.27;65.86;100787.97;10086537;28;20138;-68
2021/08/01 20:35:26;;;;;;;5.10;1.35;;;;;;;16.30;65.61;100787.28;10082427;28;20051;-70
2021/08/01 20:40:22;;;;;;;5.72;1.33;;;;;;;16.27;66.03;100776.94;10093431;28;20067;-70
2021/08/01 20:45:19;;;;;;;3.65;1.00;;;;;;;16.28;66.09;100784.06;10096174;28;20050;-68
2021/08/01 20:50:16;;;;;;;3.63;0.93;;;;;;;16.26;66.31;100787.19;10090320;28;20421;-68
2021/08/01 20:55:14;;;;;;;4.90;1.30;;;;;;;16.20;67.36;100783.09;10089866;28;20137;-68
2021/08/01 21:00:11;;;;;;;4.75;1.17;;;;;;;16.16;67.15;100780.22;10102599;28;20068;-69
2021/08/01 21:05:09;;;;;;;5.35;1.27;;;;;;;16.11;67.03;100788.78;10104662;28;20043;-68
2021/08/01 21:10:07;;;;;;;7.32;1.00;;;;;;;16.10;67.73;100784.41;10106547;28;20468;-70
2021/08/01 21:15:04;;;;;;;5.20;1.38;;;;;;;16.19;67.82;100793.31;10103441;28;20081;-70
2021/08/01 21:20:01;;;;;;;3.05;1.08;;;;;;;16.18;67.49;100785.41;10112793;28;20129;-68
2021/08/01 21:25:00;;;;;;;3.75;1.17;;;;;;;16.17;67.46;100784.56;10104494;28;20055;-70
2021/08/01 21:29:57;;;;;;;4.60;0.95;;;;;;;16.01;67.88;100794.78;10113758;28;20054;-69
2021/08/01 21:34:53;;;;;;;5.40;1.10;;;;;;;16.06;68.05;100800.06;10116807;28;20043;-70
2021/08/01 21:39:50;;;;;;;5.07;1.35;;;;;;;15.98;68.28;100798.25;10110347;28;20047;-69
2021/08/01 21:44:46;;;;;;;4.53;0.98;;;;;;;15.97;68.54;100791.94;10111171;28;20508;-70
2021/08/01 21:49:43;;;;;;;4.97;1.00;;;;;;;16.01;68.56;100794.78;10112581;28;20094;-70
2021/08/01 21:54:42;;;;;;;4.90;1.02;;;;;;;15.89;68.15;100789.34;10112814;28;20554;-69
2021/08/01 21:59:39;;;;;;;4.57;1.23;;;;;;;15.80;68.87;100796.97;10111520;28;20047;-69
2021/08/01 22:04:44;;;;;;;3.45;0.80;;;;;;;15.80;69.56;100792.25;10099389;28;20073;-68
2021/08/01 22:09:42;;;;;;;4.50;1.15;;;;;;;15.85;68.97;100789.25;10104270;28;20463;-71
2021/08/01 22:14:41;;;;;;;3.10;0.90;;;;;;;15.78;69.09;100800.88;10112101;28;20066;-71
2021/08/01 22:19:44;;;;;;;2.28;0.80;;;;;;;15.81;69.06;100798.59;10094699;28;20042;-69
2021/08/01 22:24:40;;;;;;;3.47;0.85;;;;;;;15.64;70.00;100799.63;10108054;28;20513;-69
2021/08/01 22:29:40;;;;;;;6.38;1.23;;;;;;;15.71;69.35;100806.19;10110223;28;20051;-69
2021/08/01 22:34:37;;;;;;;5.78;1.48;;;;;;;15.60;70.33;100804.25;10111972;28;20496;-67
2021/08/01 22:39:35;;;;;;;5.60;1.33;;;;;;;15.60;69.91;100794.03;10113782;28;20071;-70
2021/08/01 22:44:32;;;;;;;7.28;1.13;;;;;;;15.64;70.17;100794.94;10109769;28;20085;-70
2021/08/01 22:49:29;;;;;;;5.55;1.10;;;;;;;15.61;69.68;100790.13;10106192;28;20074;-69
2021/08/01 22:54:25;;;;;;;4.25;0.85;;;;;;;15.63;69.57;100793.31;10109841;28;20042;-69